createdAt,value
2022-11-28T00:01:34.000Z,7.40
2022-11-28T00:04:00.369Z,6.97
2022-11-28T00:06:27.562Z,7.63
2022-11-28T00:08:54.715Z,7.70
2022-11-28T00:11:21.142Z,7.47
2022-11-28T00:13:47.483Z,8.73
2022-11-28T00:16:18.050Z,7.27
2022-11-28T00:18:44.441Z,7.73
2022-11-28T00:21:13.180Z,7.60
2022-11-28T00:23:40.802Z,8.73
2022-11-28T00:26:10.784Z,8.33
2022-11-28T00:28:37.760Z,8.80
2022-11-28T00:31:04.791Z,7.90
2022-11-28T00:33:34.838Z,8.20
2022-11-28T00:36:03.148Z,8.23
2022-11-28T00:38:30.181Z,9.40
2022-11-28T00:41:08.396Z,8.07
2022-11-28T00:43:35.154Z,8.17
2022-11-28T00:46:02.826Z,8.67
2022-11-28T00:48:29.553Z,7.17
2022-11-28T00:51:08.630Z,8.40
2022-11-28T00:53:35.630Z,8.83
2022-11-28T00:56:05.577Z,7.47
2022-11-28T00:58:33.468Z,8.90
2022-11-28T01:01:00.437Z,7.57
2022-11-28T01:03:26.854Z,7.50
2022-11-28T01:05:53.224Z,8.53
2022-11-28T01:08:19.561Z,8.37
2022-11-28T01:10:46.116Z,8.70
2022-11-28T01:13:12.478Z,9.33
2022-11-28T01:15:42.004Z,9.23
2022-11-28T01:18:08.682Z,10.13
2022-11-28T01:20:35.123Z,9.90
2022-11-28T01:23:01.589Z,9.03
2022-11-28T01:25:27.972Z,9.03
2022-11-28T01:27:54.394Z,12.67
2022-11-28T01:30:20.891Z,9.20
2022-11-28T01:32:47.253Z,9.47
2022-11-28T01:35:13.655Z,8.67
2022-11-28T01:37:40.214Z,8.70
2022-11-28T01:40:07.345Z,7.40
2022-11-28T01:42:34.087Z,7.63
2022-11-28T01:45:17.314Z,6.60
2022-11-28T01:47:44.279Z,7.07
2022-11-28T01:50:11.429Z,6.93
2022-11-28T01:52:40.911Z,6.77
2022-11-28T01:55:09.011Z,8.37
2022-11-28T01:57:35.550Z,9.17
2022-11-28T02:00:12.239Z,9.27
2022-11-28T02:02:47.840Z,8.07
2022-11-28T02:05:15.995Z,9.13
2022-11-28T02:07:44.154Z,9.27
2022-11-28T02:10:15.052Z,8.60
2022-11-28T02:12:59.005Z,8.57
2022-11-28T02:16:01.708Z,7.87
2022-11-28T02:18:36.243Z,9.03
2022-11-28T02:21:25.799Z,7.73
2022-11-28T02:24:02.563Z,8.10
2022-11-28T02:26:55.983Z,7.10
2022-11-28T02:29:47.338Z,7.20
2022-11-28T02:32:30.211Z,6.87
2022-11-28T02:35:05.113Z,7.03
2022-11-28T02:37:44.075Z,8.03
2022-11-28T02:40:25.014Z,7.97
2022-11-28T02:43:16.726Z,7.80
2022-11-28T02:45:55.185Z,7.63
2022-11-28T02:48:30.616Z,7.33
2022-11-28T02:51:06.410Z,7.50
2022-11-28T02:53:34.003Z,7.73
2022-11-28T02:56:00.811Z,8.50
2022-11-28T02:58:27.355Z,8.67
2022-11-28T03:00:54.907Z,8.07
2022-11-28T03:03:36.539Z,8.13
2022-11-28T03:06:37.534Z,7.60
2022-11-28T03:09:17.167Z,7.67
2022-11-28T03:12:09.585Z,8.00
2022-11-28T03:14:54.100Z,8.40
2022-11-28T03:17:37.749Z,9.47
2022-11-28T03:20:11.759Z,9.37
2022-11-28T03:22:44.849Z,8.93
2022-11-28T03:25:35.922Z,7.17
2022-11-28T03:28:12.177Z,11.47
2022-11-28T03:30:53.659Z,8.67
2022-11-28T03:33:23.413Z,6.87
2022-11-28T03:35:56.217Z,7.20
2022-11-28T03:38:29.058Z,7.27
2022-11-28T03:40:59.863Z,7.83
2022-11-28T03:43:34.696Z,8.00
2022-11-28T03:46:07.202Z,6.77
2022-11-28T03:48:42.046Z,7.10
2022-11-28T03:51:19.913Z,8.10
2022-11-28T03:54:01.387Z,7.20
2022-11-28T03:56:40.951Z,7.57
2022-11-28T03:59:16.676Z,8.13
2022-11-28T04:02:13.847Z,7.33
2022-11-28T04:04:55.510Z,7.33
2022-11-28T04:07:41.122Z,6.90
2022-11-28T04:10:33.271Z,7.67
2022-11-28T04:13:15.383Z,6.77
2022-11-28T04:15:53.752Z,7.30
2022-11-28T04:18:57.681Z,7.57
2022-11-28T04:21:36.735Z,7.50
2022-11-28T04:24:10.438Z,7.87
2022-11-28T04:26:43.584Z,6.87
2022-11-28T04:29:13.981Z,6.90
2022-11-28T04:31:44.336Z,7.30
2022-11-28T04:34:14.210Z,7.57
2022-11-28T04:36:43.288Z,7.07
2022-11-28T04:39:14.750Z,7.10
2022-11-28T04:41:53.441Z,8.07
2022-11-28T04:44:26.830Z,7.00
2022-11-28T04:46:55.494Z,6.80
2022-11-28T04:49:23.607Z,9.10
2022-11-28T04:52:07.280Z,10.93
2022-11-28T04:54:45.171Z,7.73
2022-11-28T04:57:19.106Z,8.20
2022-11-28T04:59:47.204Z,8.73
2022-11-28T05:02:16.440Z,8.33
2022-11-28T05:04:44.686Z,8.20
2022-11-28T05:07:11.217Z,10.73
2022-11-28T05:09:38.355Z,11.50
2022-11-28T05:12:06.083Z,8.13
2022-11-28T05:14:32.460Z,7.97
2022-11-28T05:16:58.797Z,7.83
2022-11-28T05:19:25.285Z,7.03
2022-11-28T05:21:53.361Z,8.00
2022-11-28T05:24:22.277Z,8.03
2022-11-28T05:26:49.010Z,9.57
2022-11-28T05:29:15.435Z,7.47
2022-11-28T05:31:41.835Z,7.47
2022-11-28T05:34:08.415Z,11.03
2022-11-28T05:36:35.026Z,9.03
2022-11-28T05:39:01.366Z,9.20
2022-11-28T05:41:30.380Z,9.63
2022-11-28T05:43:58.008Z,7.97
2022-11-28T05:46:25.192Z,8.43
2022-11-28T05:48:51.575Z,8.80
2022-11-28T05:51:18.174Z,8.30
2022-11-28T05:53:44.914Z,8.03
2022-11-28T05:56:23.048Z,8.43
2022-11-28T05:58:49.755Z,9.13
2022-11-28T06:01:24.493Z,8.70
2022-11-28T06:03:51.846Z,7.87
2022-11-28T06:06:22.036Z,9.00
2022-11-28T06:08:49.701Z,9.77
2022-11-28T06:11:16.441Z,9.63
2022-11-28T06:13:43.780Z,8.13
2022-11-28T06:16:12.244Z,8.83
2022-11-28T06:18:39.788Z,9.03
2022-11-28T06:21:08.040Z,9.07
2022-11-28T06:23:35.085Z,8.17
2022-11-28T06:26:06.889Z,7.43
2022-11-28T06:28:34.368Z,9.00
2022-11-28T06:31:01.111Z,9.07
2022-11-28T06:33:27.697Z,8.60
2022-11-28T06:36:01.562Z,8.83
2022-11-28T06:38:28.798Z,8.43
2022-11-28T06:41:00.005Z,8.07
2022-11-28T06:43:27.157Z,8.43
2022-11-28T06:45:54.096Z,8.73
2022-11-28T06:48:21.174Z,9.33
2022-11-28T06:50:48.026Z,9.43
2022-11-28T06:53:14.565Z,9.57
2022-11-28T06:55:42.309Z,7.90
2022-11-28T06:58:08.776Z,10.00
2022-11-28T07:00:35.546Z,9.70
2022-11-28T07:03:01.938Z,9.60
2022-11-28T07:05:28.460Z,9.90
2022-11-28T07:07:54.972Z,9.57
2022-11-28T07:10:22.293Z,8.60
2022-11-28T07:12:54.477Z,11.40
2022-11-28T07:15:21.128Z,10.43
2022-11-28T07:17:47.462Z,9.60
2022-11-28T07:20:14.178Z,8.90
2022-11-28T07:22:40.644Z,8.90
2022-11-28T07:25:07.593Z,8.50
2022-11-28T07:27:34.089Z,8.33
2022-11-28T07:30:00.438Z,8.57
2022-11-28T07:32:26.768Z,10.30
2022-11-28T07:34:53.801Z,9.33
2022-11-28T07:37:20.185Z,11.50
2022-11-28T07:39:46.524Z,9.57
2022-11-28T07:42:13.062Z,10.37
2022-11-28T07:44:39.426Z,11.40
2022-11-28T07:47:05.852Z,10.03
2022-11-28T07:49:32.268Z,9.83
2022-11-28T07:51:58.818Z,10.07
2022-11-28T07:54:25.212Z,14.17
2022-11-28T07:59:37.886Z,9.87
2022-11-28T08:02:04.402Z,11.13
2022-11-28T08:04:30.877Z,9.90
2022-11-28T08:06:57.281Z,15.83
2022-11-28T08:09:23.624Z,9.93
2022-11-28T08:11:52.316Z,10.33
2022-11-28T08:14:18.710Z,10.23
2022-11-28T08:16:45.355Z,11.23
2022-11-28T08:19:11.968Z,10.17
2022-11-28T08:21:38.849Z,14.57
2022-11-28T08:24:07.723Z,10.77
2022-11-28T08:26:34.753Z,9.43
2022-11-28T08:29:02.176Z,10.80
2022-11-28T08:31:31.882Z,9.80
2022-11-28T08:34:01.116Z,10.73
2022-11-28T08:36:29.374Z,9.80
2022-11-28T08:39:17.072Z,9.73
2022-11-28T08:41:42.734Z,10.00
2022-11-28T08:44:09.205Z,10.77
2022-11-28T08:46:36.206Z,11.23
2022-11-28T08:49:04.564Z,9.33
2022-11-28T08:51:31.643Z,8.70
2022-11-28T08:53:59.794Z,9.20
2022-11-28T08:56:26.945Z,9.13
2022-11-28T08:58:53.344Z,9.30
2022-11-28T09:01:22.482Z,9.83
2022-11-28T09:03:49.493Z,9.33
2022-11-28T09:06:17.307Z,18.37
2022-11-28T09:08:44.290Z,9.40
2022-11-28T09:11:13.201Z,9.97
2022-11-28T09:13:39.655Z,11.33
2022-11-28T09:16:06.610Z,13.07
2022-11-28T09:18:33.347Z,9.53
2022-11-28T09:21:01.834Z,10.63
2022-11-28T09:23:29.127Z,10.00
2022-11-28T09:25:56.242Z,10.50
2022-11-28T09:28:23.577Z,10.27
2022-11-28T09:30:50.342Z,9.87
2022-11-28T09:33:16.810Z,13.63
2022-11-28T09:35:43.213Z,10.27
2022-11-28T09:38:09.571Z,12.40
2022-11-28T09:40:42.169Z,9.67
2022-11-28T09:43:31.228Z,11.90
2022-11-28T09:46:00.354Z,8.70
2022-11-28T09:48:33.705Z,10.50
2022-11-28T09:51:06.872Z,10.13
2022-11-28T09:53:52.694Z,9.47
2022-11-28T09:56:22.105Z,9.93
2022-11-28T09:59:00.618Z,9.77
2022-11-28T10:01:45.531Z,9.63
2022-11-28T10:04:24.220Z,10.47
2022-11-28T10:07:09.270Z,17.20
2022-11-28T10:09:59.897Z,9.43
2022-11-28T10:12:31.580Z,10.10
2022-11-28T10:15:03.732Z,12.50
2022-11-28T10:17:56.609Z,12.37
2022-11-28T10:20:27.191Z,11.27
2022-11-28T10:22:59.286Z,10.53
2022-11-28T10:25:28.425Z,10.63
2022-11-28T10:27:55.596Z,9.87
2022-11-28T10:30:25.811Z,11.47
2022-11-28T10:32:57.638Z,10.90
2022-11-28T10:35:44.659Z,11.13
2022-11-28T10:38:16.002Z,12.30
2022-11-28T10:40:55.641Z,10.33
2022-11-28T10:43:59.483Z,10.87
2022-11-28T10:46:41.175Z,11.57
2022-11-28T10:49:19.703Z,12.07
2022-11-28T10:52:23.593Z,10.77
2022-11-28T10:55:07.516Z,12.67
2022-11-28T10:57:45.208Z,12.27
2022-11-28T11:00:14.893Z,11.70
2022-11-28T11:02:46.371Z,16.27
2022-11-28T11:05:18.413Z,11.33
2022-11-28T11:08:12.647Z,12.60
2022-11-28T11:10:49.135Z,13.93
2022-11-28T11:13:53.464Z,12.13
2022-11-28T11:16:19.880Z,14.13
2022-11-28T11:18:46.605Z,10.80
2022-11-28T11:21:19.210Z,10.40
2022-11-28T11:23:46.795Z,11.47
2022-11-28T11:26:29.060Z,12.27
2022-11-28T11:28:56.330Z,11.60
2022-11-28T11:31:31.879Z,12.47
2022-11-28T11:34:07.642Z,11.27
2022-11-28T11:36:36.403Z,12.23
2022-11-28T11:39:12.330Z,13.83
2022-11-28T11:41:41.742Z,13.67
2022-11-28T11:44:13.815Z,12.23
2022-11-28T11:46:57.140Z,13.97
2022-11-28T11:49:35.657Z,14.47
2022-11-28T11:52:05.917Z,12.57
2022-11-28T11:54:32.846Z,10.70
2022-11-28T11:57:30.834Z,10.50
2022-11-28T11:59:52.529Z,14.13
2022-11-28T12:02:31.027Z,11.80
2022-11-28T12:05:28.062Z,13.80
2022-11-28T12:08:00.003Z,15.67
2022-11-28T12:10:30.885Z,10.23
2022-11-28T12:12:57.468Z,12.83
2022-11-28T12:15:50.873Z,14.07
2022-11-28T12:18:30.745Z,12.80
2022-11-28T12:21:13.931Z,12.13
2022-11-28T12:23:54.150Z,13.60
2022-11-28T12:26:30.632Z,12.87
2022-11-28T12:29:06.234Z,13.90
2022-11-28T12:31:49.714Z,14.97
2022-11-28T12:34:31.354Z,13.43
2022-11-28T12:37:10.222Z,15.67
2022-11-28T12:39:39.526Z,13.53
2022-11-28T12:42:11.773Z,13.37
2022-11-28T12:44:44.368Z,12.40
2022-11-28T12:47:22.901Z,13.20
2022-11-28T12:50:11.536Z,16.83
2022-11-28T12:53:03.937Z,14.23
2022-11-28T12:55:39.645Z,13.80
2022-11-28T12:58:19.791Z,15.23
2022-11-28T13:01:16.727Z,12.10
2022-11-28T13:04:13.317Z,12.70
2022-11-28T13:06:53.070Z,13.70
2022-11-28T13:09:29.692Z,15.33
2022-11-28T13:12:16.406Z,11.80
2022-11-28T13:14:52.645Z,12.40
2022-11-28T13:17:41.767Z,15.10
2022-11-28T13:20:32.840Z,11.63
2022-11-28T13:23:21.982Z,12.93
2022-11-28T13:26:13.182Z,12.03
2022-11-28T13:28:51.790Z,11.40
2022-11-28T13:31:48.946Z,15.70
2022-11-28T13:34:17.466Z,11.83
2022-11-28T13:40:18.611Z,11.10
2022-11-28T13:43:04.373Z,10.80
2022-11-28T13:45:36.496Z,10.43
2022-11-28T13:48:57.641Z,15.33
2022-11-28T13:51:28.712Z,16.50
2022-11-28T13:54:22.152Z,11.53
2022-11-28T13:57:13.408Z,15.03
2022-11-28T13:59:39.936Z,11.83
2022-11-28T14:02:21.895Z,11.73
2022-11-28T14:04:49.004Z,11.77
2022-11-28T14:07:30.586Z,13.73
2022-11-28T14:10:17.967Z,12.53
2022-11-28T14:13:11.744Z,17.47
2022-11-28T14:15:56.630Z,13.53
2022-11-28T14:18:57.252Z,13.53
2022-11-28T14:21:42.322Z,18.87
2022-11-28T14:24:46.892Z,16.87
2022-11-28T14:27:24.885Z,39.47
2022-11-28T14:29:54.623Z,14.50
2022-11-28T14:32:43.176Z,12.37
2022-11-28T14:35:37.496Z,13.27
2022-11-28T14:38:29.777Z,12.13
2022-11-28T14:41:11.489Z,14.87
2022-11-28T14:43:40.925Z,14.20
2022-11-28T14:46:23.643Z,11.87
2022-11-28T14:48:59.497Z,13.97
2022-11-28T14:51:49.021Z,11.73
2022-11-28T14:54:38.203Z,10.90
2022-11-28T14:57:16.787Z,13.90
2022-11-28T14:59:43.891Z,12.30
2022-11-28T15:02:10.676Z,13.63
2022-11-28T15:04:55.354Z,12.30
2022-11-28T15:07:31.875Z,13.73
2022-11-28T15:10:33.520Z,18.37
2022-11-28T15:13:13.692Z,15.13
2022-11-28T15:15:48.689Z,14.00
2022-11-28T15:18:18.319Z,14.13
2022-11-28T15:20:55.126Z,17.67
2022-11-28T15:23:23.984Z,16.97
2022-11-28T15:25:55.390Z,14.57
2022-11-28T15:28:23.739Z,15.33
2022-11-28T15:30:52.817Z,13.77
2022-11-28T15:33:20.454Z,16.80
2022-11-28T15:36:10.733Z,14.33
2022-11-28T15:38:38.361Z,14.20
2022-11-28T15:41:05.045Z,13.97
2022-11-28T15:43:32.314Z,14.07
2022-11-28T15:46:01.281Z,12.97
2022-11-28T15:48:46.843Z,13.20
2022-11-28T15:51:26.467Z,13.80
2022-11-28T15:53:53.133Z,13.87
2022-11-28T15:56:19.760Z,15.73
2022-11-28T15:58:47.664Z,14.13
2022-11-28T16:01:19.904Z,14.20
2022-11-28T16:03:57.385Z,14.53
2022-11-28T16:06:26.689Z,13.30
2022-11-28T16:09:03.915Z,12.60
2022-11-28T16:11:32.362Z,14.10
2022-11-28T16:14:06.412Z,13.70
2022-11-28T16:16:37.725Z,14.53
2022-11-28T16:19:08.171Z,16.83
2022-11-28T16:21:43.716Z,17.07
2022-11-28T16:24:23.556Z,16.57
2022-11-28T16:27:01.457Z,15.10
2022-11-28T16:29:42.666Z,12.43
2022-11-28T16:32:31.963Z,15.27
2022-11-28T16:35:00.752Z,11.87
2022-11-28T16:37:29.371Z,13.07
2022-11-28T16:40:05.753Z,13.50
2022-11-28T16:42:33.677Z,11.33
2022-11-28T16:45:15.546Z,10.60
2022-11-28T16:47:43.237Z,10.20
2022-11-28T16:50:15.388Z,11.07
2022-11-28T16:52:47.914Z,9.93
2022-11-28T16:55:34.727Z,13.67
2022-11-28T16:58:11.365Z,13.20
2022-11-28T17:00:42.196Z,11.73
2022-11-28T17:03:42.930Z,11.53
2022-11-28T17:06:16.538Z,10.90
2022-11-28T17:08:43.023Z,11.20
2022-11-28T17:11:10.050Z,9.30
2022-11-28T17:13:36.400Z,10.33
2022-11-28T17:16:03.140Z,9.07
2022-11-28T17:18:31.926Z,11.17
2022-11-28T17:21:00.829Z,10.13
2022-11-28T17:23:27.242Z,11.77
2022-11-28T17:25:53.549Z,14.27
2022-11-28T17:28:23.210Z,14.70
2022-11-28T17:30:51.628Z,14.77
2022-11-28T17:33:18.000Z,14.43
2022-11-28T17:35:46.886Z,14.77
2022-11-28T17:38:13.224Z,15.23
2022-11-28T17:40:42.058Z,14.37
2022-11-28T17:43:20.011Z,20.50
2022-11-28T17:45:47.286Z,19.03
2022-11-28T17:48:15.857Z,17.00
2022-11-28T17:50:44.416Z,13.53
2022-11-28T17:53:13.957Z,15.53
2022-11-28T17:55:45.707Z,15.37
2022-11-28T17:58:21.203Z,14.00
2022-11-28T18:00:48.207Z,13.13
2022-11-28T18:03:15.633Z,13.13
2022-11-28T18:05:45.619Z,14.33
2022-11-28T18:08:19.156Z,13.33
2022-11-28T18:10:48.211Z,12.97
2022-11-28T18:13:16.577Z,14.10
2022-11-28T18:15:44.841Z,12.70
2022-11-28T18:18:12.003Z,12.20
2022-11-28T18:20:38.375Z,13.57
2022-11-28T18:23:04.774Z,13.10
2022-11-28T18:25:31.097Z,12.30
2022-11-28T18:27:57.466Z,15.57
2022-11-28T18:30:23.846Z,13.10
2022-11-28T18:32:50.283Z,14.90
2022-11-28T18:35:16.914Z,16.30
2022-11-28T18:37:43.472Z,16.67
2022-11-28T18:40:10.098Z,18.67
2022-11-28T18:42:37.121Z,14.03
2022-11-28T18:45:03.761Z,14.83
2022-11-28T18:47:30.272Z,14.23
2022-11-28T18:49:57.709Z,15.90
2022-11-28T18:52:24.202Z,14.93
2022-11-28T18:54:50.685Z,16.47
2022-11-28T18:57:17.080Z,15.03
2022-11-28T18:59:49.003Z,17.13
2022-11-28T19:02:19.354Z,14.47
2022-11-28T19:04:45.689Z,14.87
2022-11-28T19:07:12.122Z,14.97
2022-11-28T19:09:39.919Z,15.90
2022-11-28T19:12:06.817Z,14.70
2022-11-28T19:14:33.264Z,19.40
2022-11-28T19:16:59.637Z,16.80
2022-11-28T19:19:26.015Z,14.97
2022-11-28T19:21:52.577Z,15.47
2022-11-28T19:24:18.988Z,15.80
2022-11-28T19:26:45.704Z,16.07
2022-11-28T19:29:12.945Z,17.87
2022-11-28T19:31:41.380Z,16.33
2022-11-28T19:34:13.653Z,22.10
2022-11-28T19:36:43.379Z,20.37
2022-11-28T19:39:16.864Z,31.70
2022-11-28T19:41:43.576Z,25.43
2022-11-28T19:44:11.121Z,30.23
2022-11-28T19:46:38.866Z,32.77
2022-11-28T19:49:06.069Z,29.83
2022-11-28T19:51:34.148Z,26.80
2022-11-28T19:54:03.495Z,24.70
2022-11-28T19:56:31.318Z,26.03
2022-11-28T19:58:59.060Z,26.70
2022-11-28T20:01:25.818Z,31.17
2022-11-28T20:03:53.289Z,29.40
2022-11-28T20:06:26.620Z,26.57
2022-11-28T20:08:55.355Z,30.07
2022-11-28T20:11:24.681Z,28.47
2022-11-28T20:14:12.632Z,34.37
2022-11-28T20:16:40.319Z,29.17
2022-11-28T20:19:07.517Z,32.10
2022-11-28T20:21:34.378Z,30.07
2022-11-28T20:24:04.523Z,31.20
2022-11-28T20:26:42.331Z,33.83
2022-11-28T20:29:11.700Z,28.40
2022-11-28T20:31:45.222Z,26.53
2022-11-28T20:34:14.132Z,32.87
2022-11-28T20:36:43.546Z,30.23
2022-11-28T20:39:10.907Z,29.00
2022-11-28T20:41:37.277Z,27.50
2022-11-28T20:44:03.751Z,29.33
2022-11-28T20:46:33.438Z,30.93
2022-11-28T20:49:03.083Z,31.60
2022-11-28T20:51:31.376Z,30.10
2022-11-28T20:53:59.162Z,33.10
2022-11-28T20:56:29.499Z,29.80
2022-11-28T20:58:58.472Z,33.83
2022-11-28T21:01:27.275Z,27.30
2022-11-28T21:03:53.746Z,24.37
2022-11-28T21:06:20.486Z,28.43
2022-11-28T21:08:47.358Z,34.03
2022-11-28T21:11:36.898Z,28.63
2022-11-28T21:14:06.607Z,29.87
2022-11-28T21:16:33.604Z,24.97
2022-11-28T21:19:07.296Z,26.80
2022-11-28T21:21:35.097Z,23.67
2022-11-28T21:24:10.672Z,33.17
2022-11-28T21:26:42.364Z,30.27
2022-11-28T21:29:12.054Z,32.40
2022-11-28T21:31:42.578Z,26.17
2022-11-28T21:34:14.315Z,27.30
2022-11-28T21:36:40.986Z,25.80
2022-11-28T21:39:07.368Z,26.57
2022-11-28T21:41:33.708Z,26.77
2022-11-28T21:44:00.977Z,24.57
2022-11-28T21:46:28.423Z,28.33
2022-11-28T21:48:54.868Z,23.30
2022-11-28T21:51:24.303Z,24.70
2022-11-28T21:53:51.536Z,23.93
2022-11-28T21:56:18.686Z,26.33
2022-11-28T21:58:45.048Z,24.17
2022-11-28T22:01:14.659Z,29.20
2022-11-28T22:03:43.523Z,33.40
2022-11-28T22:06:17.159Z,23.70
2022-11-28T22:08:44.057Z,29.70
2022-11-28T22:11:13.430Z,29.77
2022-11-28T22:13:42.181Z,31.63
2022-11-28T22:16:11.002Z,27.33
2022-11-28T22:18:37.867Z,28.97
2022-11-28T22:21:22.304Z,24.73
2022-11-28T22:23:53.412Z,30.70
2022-11-28T22:26:19.805Z,34.07
2022-11-28T22:28:53.080Z,28.33
2022-11-28T22:31:20.289Z,28.37
2022-11-28T22:33:49.332Z,24.27
2022-11-28T22:36:18.745Z,28.00
2022-11-28T22:38:47.070Z,29.70
2022-11-28T22:41:16.098Z,34.10
2022-11-28T22:43:42.532Z,29.93
2022-11-28T22:46:09.737Z,28.20
2022-11-28T22:48:38.266Z,24.40
2022-11-28T22:51:09.115Z,30.87
2022-11-28T22:53:35.867Z,28.33
2022-11-28T22:56:14.774Z,29.13
2022-11-28T22:58:43.690Z,32.60
2022-11-28T23:01:13.380Z,30.40
2022-11-28T23:03:40.524Z,31.70
2022-11-28T23:06:13.001Z,37.00
2022-11-28T23:08:39.840Z,34.93
2022-11-28T23:11:08.283Z,31.47
2022-11-28T23:13:35.975Z,28.37
2022-11-28T23:16:20.523Z,32.60
2022-11-28T23:18:50.113Z,25.33
2022-11-28T23:21:17.772Z,31.13
2022-11-28T23:23:45.946Z,25.13
2022-11-28T23:26:27.355Z,29.33
2022-11-28T23:28:54.548Z,22.47
2022-11-28T23:31:24.806Z,33.77
2022-11-28T23:33:52.246Z,28.37
2022-11-28T23:36:27.358Z,28.17
2022-11-28T23:38:56.148Z,28.53
2022-11-28T23:41:22.945Z,26.07
2022-11-28T23:43:49.311Z,27.13
2022-11-28T23:46:17.778Z,28.87
2022-11-28T23:48:44.672Z,24.73
2022-11-28T23:51:12.864Z,24.87
2022-11-28T23:53:40.691Z,26.63
2022-11-28T23:56:13.320Z,28.50
2022-11-28T23:58:40.380Z,23.13
